Cold Bay Airport Cold Bay US
ICAO: PACD
IATA:
Category: Medium
Scheduled Services:

Elevation: 96 ft
TransAlt. 18000 ft.

Airport Communications:
ASOS:135.75
ANCHORAGE CNTR:118.5
CTAF:123.6
RDO:123.6
KENAI RDO:123.6

PACD Zoom In..

Runways:

(A) RW 08 length 6235 ft width 150 ft
---- / hdg 83

(B) RW 15 length 10180 ft width 150 ft
ILS 110.30 / hdg 146

(C) RW 26 length 6235 ft width 150 ft
---- / hdg 263

(D) RW 33 length 10180 ft width 150 ft
---- / hdg 326

Location; PACD
Day. 14 / Time. 01.36 Zulu
* Altimeter: 29.82
* Temperature: 12° c. 53.6°f.
* Wind from: 070° Speed 06 kn.
Dewpoint: 10° c.
Visibility: 8 Statute Miles.
Clouds: Broken 1400 ft.
Clouds: Overcast 1900 ft.
Conditions: Light Rain.

PACD 140136Z AUTO 07006KT 8SM -RA BKN014 OVC019 12/10 A2982 RMK AO2 P0003 T01170100 TSNO

Going to: --> -->


Wind From 070°
Speed 06 kn.

 
 
jpsmedia worldairports.se 2020   terms of use